Aeroporto :
LOGIN :

Iscrizione | Disclaimer

   EN    FR    IT 

 










Sommario :    VFR   VFR Marginale   IFR   IFR Intensivo   IFR Molto Intensivo
Visibilità : 
Base nubi : 
>= 8 km
>= 3000ft
5 / 8 km
1000 / 3000 ft
1500m / 5 km
500 / 1000 ft
800 / 1500m
200 / 500 ft
< 800m
< 200 ft
Simboli :   Temporali  Nebbia  Neve Forte  Precipitazioni Forti  Vento > 20 kt
SIGMETs :   Varie  Temporali  Ghiacco  Turbolenza  Onda orograficha  Ceneri Vulcaniche






- Altitudine del aeroporto : 309 ft
- Codice IATA : FNI


LFTW - Nîmes Garons

ULTIMO METAR :
  • 190800Z AUTO 16012KT 120V180 9999 BKN009 BKN014 OVC029 20/19 Q1010 TEMPO 15015G25KT SHRA BKN012 OVC020

METARs OBSOLETI :
  • 190730Z AUTO 15010KT 9999 BKN006 BKN010 BKN016 20/18 Q1010 TEMPO 15015G25KT SHRA BKN012 OVC020
  • 190700Z AUTO 15012KT 120V190 9999 BKN006 OVC014 19/18 Q1010 TEMPO 15015G25KT SHRA BKN020 BKN030
  • 190630Z AUTO 16012KT 130V190 9999 BKN006 OVC011 19/18 Q1009 TEMPO 15015G25KT SHRA BKN020 BKN030
  • 190600Z AUTO 15012KT 110V180 9999 BKN007 BKN013 OVC018 19/18 Q1009 BECMG BKN020 BKN030
  • 190530Z AUTO 16010KT 130V190 9999 SCT007 BKN014 BKN019 19/18 Q1010 BECMG BKN020 BKN030
  • 190500Z AUTO 17011KT 130V190 9999 BKN007 BKN014 OVC021 19/18 Q1010 TEMPO 4000 SHRA BR BECMG BKN020 BKN030

TAF TAF LFTW
Valido dal 19 a 03 ore il 20 a 03 ore UTC


190200Z 1903/2003 15015KT 9999 BKN008 OVC014
TEMPO 1903/1906 4000 SHRA BR BKN004 OVC008
BECMG 1906/1908 BKN020 BKN030
PROB40
TEMPO 1908/2003 15015G25KT SHRA BKN012 OVC020



MetMap, La meteo Aeronautica in un colpo d'occhio ! - Copyright ORBIFLY Dicembre 2007 - Disclaimer

ORBIFLY MET'MAP TEAM :

Programmazione e sviluppo : Alexandra Zaïnal
Concezione e sviluppo : Baudouin d'Aumeries
Co-Programmazione e sviluppo : Marc-Olivier Méhu
Supporto tecnico e logistico : Manuel Goepfert
Aiuto per la traduzione : Arnaldo La Scala

Contatto : metmap@orbifly.com




FONTI E CREDITI :

   NOAA